sensor_id;sensor_type;location;lat;lon;timestamp;P1;durP1;ratioP1;P2;durP2;ratioP2
20122;SDS011;10222;50.848;4.336;2023-03-14T00:00:47;3.27;;;0.83;;
20122;SDS011;10222;50.848;4.336;2023-03-14T00:03:15;3.33;;;1.00;;
20122;SDS011;10222;50.848;4.336;2023-03-14T00:05:42;2.87;;;0.53;;
20122;SDS011;10222;50.848;4.336;2023-03-14T00:08:10;0.70;;;0.50;;
20122;SDS011;10222;50.848;4.336;2023-03-14T00:13:06;2.67;;;0.70;;
20122;SDS011;10222;50.848;4.336;2023-03-14T00:18:02;3.73;;;0.60;;
20122;SDS011;10222;50.848;4.336;2023-03-14T00:20:28;2.67;;;0.63;;
20122;SDS011;10222;50.848;4.336;2023-03-14T00:22:54;1.63;;;0.70;;
20122;SDS011;10222;50.848;4.336;2023-03-14T00:25:20;3.83;;;0.80;;
20122;SDS011;10222;50.848;4.336;2023-03-14T00:27:50;5.00;;;0.77;;
20122;SDS011;10222;50.848;4.336;2023-03-14T00:30:16;2.30;;;0.70;;
20122;SDS011;10222;50.848;4.336;2023-03-14T00:32:42;3.43;;;0.90;;
20122;SDS011;10222;50.848;4.336;2023-03-14T00:35:10;1.90;;;1.00;;
20122;SDS011;10222;50.848;4.336;2023-03-14T00:37:36;2.53;;;0.67;;
20122;SDS011;10222;50.848;4.336;2023-03-14T00:42:32;3.83;;;0.93;;
20122;SDS011;10222;50.848;4.336;2023-03-14T00:44:59;6.60;;;0.83;;
20122;SDS011;10222;50.848;4.336;2023-03-14T00:47:26;1.73;;;0.67;;
20122;SDS011;10222;50.848;4.336;2023-03-14T00:49:53;4.73;;;0.87;;
20122;SDS011;10222;50.848;4.336;2023-03-14T00:52:19;2.90;;;0.77;;
20122;SDS011;10222;50.848;4.336;2023-03-14T00:54:48;4.77;;;0.97;;
20122;SDS011;10222;50.848;4.336;2023-03-14T00:57:14;3.80;;;0.97;;
20122;SDS011;10222;50.848;4.336;2023-03-14T00:59:40;3.07;;;0.60;;
20122;SDS011;10222;50.848;4.336;2023-03-14T01:02:08;3.43;;;0.83;;
20122;SDS011;10222;50.848;4.336;2023-03-14T01:04:34;2.27;;;0.63;;
20122;SDS011;10222;50.848;4.336;2023-03-14T01:07:00;4.80;;;0.60;;
20122;SDS011;10222;50.848;4.336;2023-03-14T01:09:26;1.90;;;0.50;;
20122;SDS011;10222;50.848;4.336;2023-03-14T01:11:54;1.80;;;0.67;;
20122;SDS011;10222;50.848;4.336;2023-03-14T01:14:20;1.80;;;0.53;;
20122;SDS011;10222;50.848;4.336;2023-03-14T01:16:47;3.90;;;0.70;;
20122;SDS011;10222;50.848;4.336;2023-03-14T01:19:13;5.00;;;0.90;;
20122;SDS011;10222;50.848;4.336;2023-03-14T01:24:10;3.17;;;1.00;;
20122;SDS011;10222;50.848;4.336;2023-03-14T01:26:36;6.63;;;1.43;;
20122;SDS011;10222;50.848;4.336;2023-03-14T01:29:03;1.73;;;0.50;;
20122;SDS011;10222;50.848;4.336;2023-03-14T01:31:29;1.93;;;0.87;;
20122;SDS011;10222;50.848;4.336;2023-03-14T01:36:26;1.43;;;0.70;;
20122;SDS011;10222;50.848;4.336;2023-03-14T01:38:53;1.80;;;0.40;;
20122;SDS011;10222;50.848;4.336;2023-03-14T01:41:20;4.73;;;0.93;;
20122;SDS011;10222;50.848;4.336;2023-03-14T01:43:46;3.33;;;0.63;;
20122;SDS011;10222;50.848;4.336;2023-03-14T01:46:24;3.13;;;0.90;;
20122;SDS011;10222;50.848;4.336;2023-03-14T01:48:59;4.13;;;0.80;;
20122;SDS011;10222;50.848;4.336;2023-03-14T01:53:55;1.67;;;0.47;;
20122;SDS011;10222;50.848;4.336;2023-03-14T01:56:24;0.70;;;0.33;;
20122;SDS011;10222;50.848;4.336;2023-03-14T01:58:51;2.53;;;0.40;;
20122;SDS011;10222;50.848;4.336;2023-03-14T02:01:24;0.90;;;0.30;;
20122;SDS011;10222;50.848;4.336;2023-03-14T02:03:52;3.10;;;0.70;;
20122;SDS011;10222;50.848;4.336;2023-03-14T02:06:21;1.60;;;0.47;;
20122;SDS011;10222;50.848;4.336;2023-03-14T02:08:50;0.63;;;0.40;;
20122;SDS011;10222;50.848;4.336;2023-03-14T02:11:18;1.60;;;0.43;;
20122;SDS011;10222;50.848;4.336;2023-03-14T02:13:44;2.20;;;0.40;;
20122;SDS011;10222;50.848;4.336;2023-03-14T02:16:11;0.30;;;0.30;;
20122;SDS011;10222;50.848;4.336;2023-03-14T02:18:39;1.83;;;0.50;;
20122;SDS011;10222;50.848;4.336;2023-03-14T02:21:12;2.73;;;0.50;;
20122;SDS011;10222;50.848;4.336;2023-03-14T02:26:30;0.73;;;0.43;;
20122;SDS011;10222;50.848;4.336;2023-03-14T02:28:57;4.40;;;0.63;;
20122;SDS011;10222;50.848;4.336;2023-03-14T02:31:24;2.67;;;0.53;;
20122;SDS011;10222;50.848;4.336;2023-03-14T02:33:50;0.70;;;0.30;;
20122;SDS011;10222;50.848;4.336;2023-03-14T02:36:16;1.50;;;0.70;;
20122;SDS011;10222;50.848;4.336;2023-03-14T02:38:58;4.30;;;0.63;;
20122;SDS011;10222;50.848;4.336;2023-03-14T02:41:26;0.57;;;0.30;;
20122;SDS011;10222;50.848;4.336;2023-03-14T02:43:53;3.40;;;0.60;;
20122;SDS011;10222;50.848;4.336;2023-03-14T02:46:20;0.40;;;0.33;;
20122;SDS011;10222;50.848;4.336;2023-03-14T02:48:51;1.63;;;0.73;;
20122;SDS011;10222;50.848;4.336;2023-03-14T02:51:17;2.50;;;0.57;;
20122;SDS011;10222;50.848;4.336;2023-03-14T02:53:44;1.17;;;0.63;;
20122;SDS011;10222;50.848;4.336;2023-03-14T02:56:11;3.00;;;1.00;;
20122;SDS011;10222;50.848;4.336;2023-03-14T02:58:38;1.10;;;0.60;;
20122;SDS011;10222;50.848;4.336;2023-03-14T03:01:06;3.63;;;0.90;;
20122;SDS011;10222;50.848;4.336;2023-03-14T03:03:32;1.90;;;1.13;;
20122;SDS011;10222;50.848;4.336;2023-03-14T03:06:00;2.33;;;0.87;;
20122;SDS011;10222;50.848;4.336;2023-03-14T03:08:28;4.60;;;1.50;;
20122;SDS011;10222;50.848;4.336;2023-03-14T03:10:56;3.80;;;1.20;;
20122;SDS011;10222;50.848;4.336;2023-03-14T03:13:23;5.53;;;1.23;;
20122;SDS011;10222;50.848;4.336;2023-03-14T03:15:50;6.17;;;1.23;;
20122;SDS011;10222;50.848;4.336;2023-03-14T03:20:45;2.57;;;0.90;;
20122;SDS011;10222;50.848;4.336;2023-03-14T03:23:12;3.93;;;1.03;;
20122;SDS011;10222;50.848;4.336;2023-03-14T03:25:38;4.17;;;1.57;;
20122;SDS011;10222;50.848;4.336;2023-03-14T03:28:07;6.53;;;1.67;;
20122;SDS011;10222;50.848;4.336;2023-03-14T03:30:37;4.17;;;1.20;;
20122;SDS011;10222;50.848;4.336;2023-03-14T03:33:03;3.93;;;1.07;;
20122;SDS011;10222;50.848;4.336;2023-03-14T03:35:30;1.73;;;1.03;;
20122;SDS011;10222;50.848;4.336;2023-03-14T03:37:58;5.43;;;1.40;;
20122;SDS011;10222;50.848;4.336;2023-03-14T03:40:26;4.13;;;1.40;;
20122;SDS011;10222;50.848;4.336;2023-03-14T03:42:52;4.00;;;1.10;;
20122;SDS011;10222;50.848;4.336;2023-03-14T03:45:18;2.73;;;1.30;;
20122;SDS011;10222;50.848;4.336;2023-03-14T03:47:51;5.63;;;1.93;;
20122;SDS011;10222;50.848;4.336;2023-03-14T03:50:18;3.57;;;1.50;;
20122;SDS011;10222;50.848;4.336;2023-03-14T03:52:47;3.43;;;2.07;;
20122;SDS011;10222;50.848;4.336;2023-03-14T03:55:13;12.00;;;2.27;;
20122;SDS011;10222;50.848;4.336;2023-03-14T03:57:41;5.60;;;1.73;;
20122;SDS011;10222;50.848;4.336;2023-03-14T04:00:09;6.07;;;2.07;;
20122;SDS011;10222;50.848;4.336;2023-03-14T04:02:37;6.43;;;2.10;;
20122;SDS011;10222;50.848;4.336;2023-03-14T04:05:03;4.57;;;1.60;;
20122;SDS011;10222;50.848;4.336;2023-03-14T04:07:31;4.37;;;1.40;;
20122;SDS011;10222;50.848;4.336;2023-03-14T04:09:58;3.50;;;1.70;;
20122;SDS011;10222;50.848;4.336;2023-03-14T04:12:25;3.20;;;1.23;;
20122;SDS011;10222;50.848;4.336;2023-03-14T04:14:52;3.60;;;1.50;;
20122;SDS011;10222;50.848;4.336;2023-03-14T04:17:18;4.60;;;1.23;;
20122;SDS011;10222;50.848;4.336;2023-03-14T04:19:44;3.27;;;1.23;;
20122;SDS011;10222;50.848;4.336;2023-03-14T04:22:11;1.53;;;1.00;;
20122;SDS011;10222;50.848;4.336;2023-03-14T04:24:37;3.40;;;1.30;;
20122;SDS011;10222;50.848;4.336;2023-03-14T04:27:05;3.30;;;1.17;;
20122;SDS011;10222;50.848;4.336;2023-03-14T04:29:31;1.93;;;1.17;;
20122;SDS011;10222;50.848;4.336;2023-03-14T04:31:58;2.27;;;1.17;;
20122;SDS011;10222;50.848;4.336;2023-03-14T04:34:24;8.67;;;1.83;;
20122;SDS011;10222;50.848;4.336;2023-03-14T04:36:50;2.23;;;1.00;;
20122;SDS011;10222;50.848;4.336;2023-03-14T04:39:16;1.57;;;1.00;;
20122;SDS011;10222;50.848;4.336;2023-03-14T04:41:43;1.67;;;0.90;;
20122;SDS011;10222;50.848;4.336;2023-03-14T04:44:12;1.10;;;0.80;;
20122;SDS011;10222;50.848;4.336;2023-03-14T04:49:10;0.90;;;0.70;;
20122;SDS011;10222;50.848;4.336;2023-03-14T04:51:36;1.97;;;0.87;;
20122;SDS011;10222;50.848;4.336;2023-03-14T04:54:03;1.33;;;0.60;;
20122;SDS011;10222;50.848;4.336;2023-03-14T04:56:31;1.17;;;0.60;;
20122;SDS011;10222;50.848;4.336;2023-03-14T04:58:58;2.30;;;1.10;;
20122;SDS011;10222;50.848;4.336;2023-03-14T05:01:24;1.30;;;0.70;;
20122;SDS011;10222;50.848;4.336;2023-03-14T05:03:51;0.77;;;0.60;;
20122;SDS011;10222;50.848;4.336;2023-03-14T05:06:18;3.13;;;1.10;;
20122;SDS011;10222;50.848;4.336;2023-03-14T05:08:45;3.00;;;0.60;;
20122;SDS011;10222;50.848;4.336;2023-03-14T05:11:11;1.97;;;0.83;;
20122;SDS011;10222;50.848;4.336;2023-03-14T05:13:38;0.60;;;0.50;;
20122;SDS011;10222;50.848;4.336;2023-03-14T05:16:07;0.90;;;0.60;;
20122;SDS011;10222;50.848;4.336;2023-03-14T05:18:33;3.27;;;1.00;;
20122;SDS011;10222;50.848;4.336;2023-03-14T05:23:29;3.77;;;1.10;;
20122;SDS011;10222;50.848;4.336;2023-03-14T05:25:55;3.73;;;0.70;;
20122;SDS011;10222;50.848;4.336;2023-03-14T05:28:22;2.20;;;1.00;;
20122;SDS011;10222;50.848;4.336;2023-03-14T05:30:50;0.70;;;0.60;;
20122;SDS011;10222;50.848;4.336;2023-03-14T05:33:17;0.70;;;0.70;;
20122;SDS011;10222;50.848;4.336;2023-03-14T05:35:43;2.07;;;0.70;;
20122;SDS011;10222;50.848;4.336;2023-03-14T05:38:10;2.57;;;0.83;;
20122;SDS011;10222;50.848;4.336;2023-03-14T05:40:36;1.80;;;0.80;;
20122;SDS011;10222;50.848;4.336;2023-03-14T05:43:02;3.17;;;0.77;;
20122;SDS011;10222;50.848;4.336;2023-03-14T05:45:29;1.37;;;0.93;;
20122;SDS011;10222;50.848;4.336;2023-03-14T05:47:55;0.70;;;0.70;;
20122;SDS011;10222;50.848;4.336;2023-03-14T05:50:21;1.17;;;0.60;;
20122;SDS011;10222;50.848;4.336;2023-03-14T05:52:47;2.00;;;0.93;;
20122;SDS011;10222;50.848;4.336;2023-03-14T05:55:16;2.83;;;0.80;;
20122;SDS011;10222;50.848;4.336;2023-03-14T05:57:44;1.37;;;0.70;;
20122;SDS011;10222;50.848;4.336;2023-03-14T06:00:10;1.13;;;0.70;;
20122;SDS011;10222;50.848;4.336;2023-03-14T06:02:37;3.63;;;0.80;;
20122;SDS011;10222;50.848;4.336;2023-03-14T06:05:04;2.27;;;0.90;;
20122;SDS011;10222;50.848;4.336;2023-03-14T06:07:32;1.60;;;1.03;;
20122;SDS011;10222;50.848;4.336;2023-03-14T06:09:59;2.20;;;0.90;;
20122;SDS011;10222;50.848;4.336;2023-03-14T06:12:25;1.00;;;0.90;;
20122;SDS011;10222;50.848;4.336;2023-03-14T06:17:23;2.53;;;0.80;;
20122;SDS011;10222;50.848;4.336;2023-03-14T06:19:51;0.97;;;0.77;;
20122;SDS011;10222;50.848;4.336;2023-03-14T06:22:17;0.40;;;0.40;;
20122;SDS011;10222;50.848;4.336;2023-03-14T06:24:46;1.70;;;0.90;;
20122;SDS011;10222;50.848;4.336;2023-03-14T06:27:14;1.60;;;0.50;;
20122;SDS011;10222;50.848;4.336;2023-03-14T06:29:40;2.07;;;1.03;;
20122;SDS011;10222;50.848;4.336;2023-03-14T06:32:07;1.50;;;0.97;;
20122;SDS011;10222;50.848;4.336;2023-03-14T06:34:33;1.60;;;1.13;;
20122;SDS011;10222;50.848;4.336;2023-03-14T06:39:30;1.17;;;0.80;;
20122;SDS011;10222;50.848;4.336;2023-03-14T06:41:56;2.10;;;1.03;;
20122;SDS011;10222;50.848;4.336;2023-03-14T06:44:25;3.40;;;1.00;;
20122;SDS011;10222;50.848;4.336;2023-03-14T06:46:52;1.30;;;0.80;;
20122;SDS011;10222;50.848;4.336;2023-03-14T06:49:21;1.30;;;0.90;;
20122;SDS011;10222;50.848;4.336;2023-03-14T06:51:49;0.70;;;0.60;;
20122;SDS011;10222;50.848;4.336;2023-03-14T06:54:18;1.70;;;0.80;;
20122;SDS011;10222;50.848;4.336;2023-03-14T06:56:45;3.83;;;1.10;;
20122;SDS011;10222;50.848;4.336;2023-03-14T06:59:14;1.60;;;1.03;;
20122;SDS011;10222;50.848;4.336;2023-03-14T07:01:41;1.60;;;1.13;;
20122;SDS011;10222;50.848;4.336;2023-03-14T07:06:36;1.47;;;0.77;;
20122;SDS011;10222;50.848;4.336;2023-03-14T07:09:14;1.60;;;0.80;;
20122;SDS011;10222;50.848;4.336;2023-03-14T07:11:45;2.33;;;1.20;;
20122;SDS011;10222;50.848;4.336;2023-03-14T07:14:17;1.83;;;0.80;;
20122;SDS011;10222;50.848;4.336;2023-03-14T07:16:46;0.70;;;0.70;;
20122;SDS011;10222;50.848;4.336;2023-03-14T07:21:44;2.17;;;0.70;;
20122;SDS011;10222;50.848;4.336;2023-03-14T07:26:41;4.20;;;0.80;;
20122;SDS011;10222;50.848;4.336;2023-03-14T07:31:39;1.20;;;0.83;;
20122;SDS011;10222;50.848;4.336;2023-03-14T07:34:08;3.33;;;1.10;;
20122;SDS011;10222;50.848;4.336;2023-03-14T07:39:07;2.73;;;1.23;;
20122;SDS011;10222;50.848;4.336;2023-03-14T07:41:39;1.80;;;1.20;;
20122;SDS011;10222;50.848;4.336;2023-03-14T07:44:08;1.43;;;0.93;;
20122;SDS011;10222;50.848;4.336;2023-03-14T07:46:35;3.63;;;1.43;;
20122;SDS011;10222;50.848;4.336;2023-03-14T07:49:01;2.00;;;1.13;;
20122;SDS011;10222;50.848;4.336;2023-03-14T07:51:28;2.27;;;1.40;;
20122;SDS011;10222;50.848;4.336;2023-03-14T07:53:57;3.03;;;1.30;;
20122;SDS011;10222;50.848;4.336;2023-03-14T07:56:24;2.37;;;1.60;;
20122;SDS011;10222;50.848;4.336;2023-03-14T07:58:50;4.03;;;1.30;;
20122;SDS011;10222;50.848;4.336;2023-03-14T08:01:18;4.57;;;2.33;;
20122;SDS011;10222;50.848;4.336;2023-03-14T08:03:45;2.83;;;1.63;;
20122;SDS011;10222;50.848;4.336;2023-03-14T08:06:11;1.97;;;1.27;;
20122;SDS011;10222;50.848;4.336;2023-03-14T08:08:37;3.00;;;1.57;;
20122;SDS011;10222;50.848;4.336;2023-03-14T08:11:05;3.80;;;1.83;;
20122;SDS011;10222;50.848;4.336;2023-03-14T08:13:36;4.53;;;1.57;;
20122;SDS011;10222;50.848;4.336;2023-03-14T08:16:03;6.13;;;2.03;;
20122;SDS011;10222;50.848;4.336;2023-03-14T08:18:30;3.50;;;1.97;;
20122;SDS011;10222;50.848;4.336;2023-03-14T08:20:56;2.70;;;1.73;;
20122;SDS011;10222;50.848;4.336;2023-03-14T08:23:23;3.90;;;1.97;;
20122;SDS011;10222;50.848;4.336;2023-03-14T08:25:52;4.17;;;1.60;;
20122;SDS011;10222;50.848;4.336;2023-03-14T08:28:20;3.50;;;1.87;;
20122;SDS011;10222;50.848;4.336;2023-03-14T08:30:47;3.67;;;1.50;;
20122;SDS011;10222;50.848;4.336;2023-03-14T08:33:16;4.53;;;1.50;;
20122;SDS011;10222;50.848;4.336;2023-03-14T08:35:42;3.80;;;1.20;;
20122;SDS011;10222;50.848;4.336;2023-03-14T08:38:11;2.57;;;1.27;;
20122;SDS011;10222;50.848;4.336;2023-03-14T08:40:37;1.17;;;1.07;;
20122;SDS011;10222;50.848;4.336;2023-03-14T08:43:03;1.80;;;1.13;;
20122;SDS011;10222;50.848;4.336;2023-03-14T08:45:30;3.30;;;1.40;;
20122;SDS011;10222;50.848;4.336;2023-03-14T08:47:57;6.37;;;2.03;;
20122;SDS011;10222;50.848;4.336;2023-03-14T08:50:23;2.20;;;1.30;;
20122;SDS011;10222;50.848;4.336;2023-03-14T08:52:50;2.37;;;1.33;;
20122;SDS011;10222;50.848;4.336;2023-03-14T08:55:18;2.67;;;1.40;;
20122;SDS011;10222;50.848;4.336;2023-03-14T08:57:45;2.00;;;1.00;;
20122;SDS011;10222;50.848;4.336;2023-03-14T09:00:11;3.67;;;1.90;;
20122;SDS011;10222;50.848;4.336;2023-03-14T09:02:54;1.30;;;1.00;;
20122;SDS011;10222;50.848;4.336;2023-03-14T09:05:20;2.73;;;1.53;;
20122;SDS011;10222;50.848;4.336;2023-03-14T09:07:49;3.03;;;1.20;;
20122;SDS011;10222;50.848;4.336;2023-03-14T09:10:16;3.03;;;1.83;;
20122;SDS011;10222;50.848;4.336;2023-03-14T09:12:42;2.33;;;1.40;;
20122;SDS011;10222;50.848;4.336;2023-03-14T09:15:10;2.40;;;1.30;;
20122;SDS011;10222;50.848;4.336;2023-03-14T09:17:41;3.77;;;1.40;;
20122;SDS011;10222;50.848;4.336;2023-03-14T09:20:08;5.40;;;1.30;;
20122;SDS011;10222;50.848;4.336;2023-03-14T09:22:35;9.83;;;1.93;;
20122;SDS011;10222;50.848;4.336;2023-03-14T09:25:02;2.17;;;1.07;;
20122;SDS011;10222;50.848;4.336;2023-03-14T09:27:30;5.47;;;1.47;;
20122;SDS011;10222;50.848;4.336;2023-03-14T09:29:57;3.47;;;1.30;;
20122;SDS011;10222;50.848;4.336;2023-03-14T09:32:24;6.53;;;2.03;;
20122;SDS011;10222;50.848;4.336;2023-03-14T09:34:50;5.60;;;2.10;;
20122;SDS011;10222;50.848;4.336;2023-03-14T09:37:17;2.83;;;1.43;;
20122;SDS011;10222;50.848;4.336;2023-03-14T09:39:46;3.70;;;1.77;;
20122;SDS011;10222;50.848;4.336;2023-03-14T09:42:16;5.23;;;1.13;;
20122;SDS011;10222;50.848;4.336;2023-03-14T09:45:02;5.00;;;1.40;;
20122;SDS011;10222;50.848;4.336;2023-03-14T09:47:33;3.50;;;1.10;;
20122;SDS011;10222;50.848;4.336;2023-03-14T09:50:05;4.77;;;1.10;;
20122;SDS011;10222;50.848;4.336;2023-03-14T09:55:02;3.23;;;1.20;;
20122;SDS011;10222;50.848;4.336;2023-03-14T09:57:30;4.47;;;1.43;;
20122;SDS011;10222;50.848;4.336;2023-03-14T10:00:02;5.17;;;1.73;;
20122;SDS011;10222;50.848;4.336;2023-03-14T10:02:50;2.10;;;1.23;;
20122;SDS011;10222;50.848;4.336;2023-03-14T10:07:46;3.13;;;1.53;;
20122;SDS011;10222;50.848;4.336;2023-03-14T10:10:19;5.73;;;1.20;;
20122;SDS011;10222;50.848;4.336;2023-03-14T10:12:46;3.90;;;1.20;;
20122;SDS011;10222;50.848;4.336;2023-03-14T10:15:13;7.20;;;1.63;;
20122;SDS011;10222;50.848;4.336;2023-03-14T10:17:47;4.70;;;1.40;;
20122;SDS011;10222;50.848;4.336;2023-03-14T10:23:07;2.27;;;1.03;;
20122;SDS011;10222;50.848;4.336;2023-03-14T10:25:57;4.67;;;1.60;;
20122;SDS011;10222;50.848;4.336;2023-03-14T10:30:54;2.83;;;1.03;;
20122;SDS011;10222;50.848;4.336;2023-03-14T10:33:25;4.60;;;1.87;;
20122;SDS011;10222;50.848;4.336;2023-03-14T10:35:59;2.60;;;1.20;;
20122;SDS011;10222;50.848;4.336;2023-03-14T10:40:57;4.43;;;1.07;;
20122;SDS011;10222;50.848;4.336;2023-03-14T10:43:25;3.13;;;0.83;;
20122;SDS011;10222;50.848;4.336;2023-03-14T10:45:54;2.57;;;1.00;;
20122;SDS011;10222;50.848;4.336;2023-03-14T10:54:14;3.30;;;1.30;;
20122;SDS011;10222;50.848;4.336;2023-03-14T10:56:57;3.83;;;1.13;;
20122;SDS011;10222;50.848;4.336;2023-03-14T10:59:29;5.90;;;1.40;;
20122;SDS011;10222;50.848;4.336;2023-03-14T11:02:03;3.90;;;1.73;;
20122;SDS011;10222;50.848;4.336;2023-03-14T11:04:45;2.23;;;0.90;;
20122;SDS011;10222;50.848;4.336;2023-03-14T11:31:41;0.60;;;0.57;;
20122;SDS011;10222;50.848;4.336;2023-03-14T11:37:17;1.53;;;0.70;;
20122;SDS011;10222;50.848;4.336;2023-03-14T11:39:50;2.87;;;0.80;;
20122;SDS011;10222;50.848;4.336;2023-03-14T11:42:25;0.93;;;0.53;;
20122;SDS011;10222;50.848;4.336;2023-03-14T11:44:55;1.53;;;0.60;;
20122;SDS011;10222;50.848;4.336;2023-03-14T11:47:26;2.67;;;0.73;;
20122;SDS011;10222;50.848;4.336;2023-03-14T11:55:31;1.07;;;0.47;;
20122;SDS011;10222;50.848;4.336;2023-03-14T11:58:01;2.27;;;0.43;;
20122;SDS011;10222;50.848;4.336;2023-03-14T12:11:01;2.70;;;0.70;;
20122;SDS011;10222;50.848;4.336;2023-03-14T12:13:36;3.13;;;0.43;;
20122;SDS011;10222;50.848;4.336;2023-03-14T12:16:06;1.03;;;0.60;;
20122;SDS011;10222;50.848;4.336;2023-03-14T12:18:36;0.47;;;0.47;;
20122;SDS011;10222;50.848;4.336;2023-03-14T12:21:08;0.40;;;0.40;;
20122;SDS011;10222;50.848;4.336;2023-03-14T12:23:47;2.07;;;0.77;;
20122;SDS011;10222;50.848;4.336;2023-03-14T12:26:16;0.60;;;0.60;;
20122;SDS011;10222;50.848;4.336;2023-03-14T12:28:50;0.60;;;0.60;;
20122;SDS011;10222;50.848;4.336;2023-03-14T12:39:10;1.77;;;1.07;;
20122;SDS011;10222;50.848;4.336;2023-03-14T12:41:48;5.70;;;1.20;;
20122;SDS011;10222;50.848;4.336;2023-03-14T12:49:46;0.90;;;0.90;;
20122;SDS011;10222;50.848;4.336;2023-03-14T12:54:46;0.80;;;0.70;;
20122;SDS011;10222;50.848;4.336;2023-03-14T13:02:47;2.57;;;0.97;;
20122;SDS011;10222;50.848;4.336;2023-03-14T13:05:22;1.70;;;1.10;;
20122;SDS011;10222;50.848;4.336;2023-03-14T13:16:14;3.83;;;1.40;;
20122;SDS011;10222;50.848;4.336;2023-03-14T13:18:50;1.70;;;1.17;;
20122;SDS011;10222;50.848;4.336;2023-03-14T13:24:07;8.23;;;1.17;;
20122;SDS011;10222;50.848;4.336;2023-03-14T13:29:20;2.43;;;0.93;;
20122;SDS011;10222;50.848;4.336;2023-03-14T13:31:57;2.80;;;1.00;;
20122;SDS011;10222;50.848;4.336;2023-03-14T13:34:34;6.97;;;1.10;;
20122;SDS011;10222;50.848;4.336;2023-03-14T13:37:03;6.23;;;1.20;;
20122;SDS011;10222;50.848;4.336;2023-03-14T13:42:00;2.73;;;1.00;;
20122;SDS011;10222;50.848;4.336;2023-03-14T13:44:27;2.33;;;1.13;;
20122;SDS011;10222;50.848;4.336;2023-03-14T13:46:59;7.07;;;1.63;;
20122;SDS011;10222;50.848;4.336;2023-03-14T13:49:29;9.83;;;1.33;;
20122;SDS011;10222;50.848;4.336;2023-03-14T13:52:02;3.30;;;1.23;;
20122;SDS011;10222;50.848;4.336;2023-03-14T13:54:44;6.77;;;1.53;;
20122;SDS011;10222;50.848;4.336;2023-03-14T13:57:12;6.07;;;1.17;;
20122;SDS011;10222;50.848;4.336;2023-03-14T13:59:41;4.47;;;1.23;;
20122;SDS011;10222;50.848;4.336;2023-03-14T14:02:14;2.30;;;1.17;;
20122;SDS011;10222;50.848;4.336;2023-03-14T14:09:42;6.97;;;1.30;;
20122;SDS011;10222;50.848;4.336;2023-03-14T14:14:58;11.10;;;1.43;;
20122;SDS011;10222;50.848;4.336;2023-03-14T14:20:02;4.37;;;0.63;;
20122;SDS011;10222;50.848;4.336;2023-03-14T14:22:33;5.77;;;0.87;;
20122;SDS011;10222;50.848;4.336;2023-03-14T14:25:02;7.57;;;1.90;;
20122;SDS011;10222;50.848;4.336;2023-03-14T14:27:38;3.83;;;0.67;;
20122;SDS011;10222;50.848;4.336;2023-03-14T14:30:24;3.13;;;0.60;;
20122;SDS011;10222;50.848;4.336;2023-03-14T14:33:07;6.63;;;1.53;;
20122;SDS011;10222;50.848;4.336;2023-03-14T14:38:10;9.50;;;1.70;;
20122;SDS011;10222;50.848;4.336;2023-03-14T14:40:50;3.87;;;0.90;;
20122;SDS011;10222;50.848;4.336;2023-03-14T14:43:34;1.53;;;0.70;;
20122;SDS011;10222;50.848;4.336;2023-03-14T14:46:07;3.63;;;1.23;;
20122;SDS011;10222;50.848;4.336;2023-03-14T14:48:36;3.00;;;0.57;;
20122;SDS011;10222;50.848;4.336;2023-03-14T14:51:06;5.37;;;0.90;;
20122;SDS011;10222;50.848;4.336;2023-03-14T14:53:40;4.53;;;0.63;;
20122;SDS011;10222;50.848;4.336;2023-03-14T14:56:21;6.33;;;1.50;;
20122;SDS011;10222;50.848;4.336;2023-03-14T14:58:57;0.50;;;0.40;;
20122;SDS011;10222;50.848;4.336;2023-03-14T15:06:42;0.87;;;0.40;;
20122;SDS011;10222;50.848;4.336;2023-03-14T15:11:44;1.30;;;0.50;;
20122;SDS011;10222;50.848;4.336;2023-03-14T15:14:12;0.20;;;0.20;;
20122;SDS011;10222;50.848;4.336;2023-03-14T15:16:39;0.40;;;0.40;;
20122;SDS011;10222;50.848;4.336;2023-03-14T15:19:10;0.47;;;0.40;;
20122;SDS011;10222;50.848;4.336;2023-03-14T15:21:39;0.73;;;0.37;;
20122;SDS011;10222;50.848;4.336;2023-03-14T15:26:37;6.67;;;1.13;;
20122;SDS011;10222;50.848;4.336;2023-03-14T15:29:08;2.43;;;0.90;;
20122;SDS011;10222;50.848;4.336;2023-03-14T15:34:09;6.00;;;0.80;;
20122;SDS011;10222;50.848;4.336;2023-03-14T15:36:47;7.83;;;0.70;;
20122;SDS011;10222;50.848;4.336;2023-03-14T15:39:16;2.30;;;0.60;;
20122;SDS011;10222;50.848;4.336;2023-03-14T15:44:11;2.30;;;0.60;;
20122;SDS011;10222;50.848;4.336;2023-03-14T15:46:41;1.70;;;0.53;;
20122;SDS011;10222;50.848;4.336;2023-03-14T15:49:08;1.90;;;0.50;;
20122;SDS011;10222;50.848;4.336;2023-03-14T15:51:37;1.40;;;0.50;;
20122;SDS011;10222;50.848;4.336;2023-03-14T15:54:06;0.93;;;0.47;;
20122;SDS011;10222;50.848;4.336;2023-03-14T15:59:04;0.57;;;0.57;;
20122;SDS011;10222;50.848;4.336;2023-03-14T16:01:36;0.50;;;0.40;;
20122;SDS011;10222;50.848;4.336;2023-03-14T16:04:05;0.50;;;0.40;;
20122;SDS011;10222;50.848;4.336;2023-03-14T16:06:32;3.40;;;0.80;;
20122;SDS011;10222;50.848;4.336;2023-03-14T16:09:18;1.40;;;0.50;;
20122;SDS011;10222;50.848;4.336;2023-03-14T16:11:47;1.50;;;0.63;;
20122;SDS011;10222;50.848;4.336;2023-03-14T16:14:14;1.40;;;0.30;;
20122;SDS011;10222;50.848;4.336;2023-03-14T16:16:46;0.97;;;0.37;;
20122;SDS011;10222;50.848;4.336;2023-03-14T16:19:13;2.40;;;0.70;;
20122;SDS011;10222;50.848;4.336;2023-03-14T16:21:39;1.90;;;0.83;;
20122;SDS011;10222;50.848;4.336;2023-03-14T16:24:09;1.93;;;0.90;;
20122;SDS011;10222;50.848;4.336;2023-03-14T16:26:36;4.30;;;1.30;;
20122;SDS011;10222;50.848;4.336;2023-03-14T16:29:05;1.57;;;0.80;;
20122;SDS011;10222;50.848;4.336;2023-03-14T16:31:31;3.57;;;1.10;;
20122;SDS011;10222;50.848;4.336;2023-03-14T16:34:01;1.63;;;0.70;;
20122;SDS011;10222;50.848;4.336;2023-03-14T16:36:29;0.83;;;0.67;;
20122;SDS011;10222;50.848;4.336;2023-03-14T16:38:55;6.43;;;1.10;;
20122;SDS011;10222;50.848;4.336;2023-03-14T16:41:21;3.40;;;0.87;;
20122;SDS011;10222;50.848;4.336;2023-03-14T16:43:50;4.57;;;1.30;;
20122;SDS011;10222;50.848;4.336;2023-03-14T16:46:20;1.93;;;1.30;;
20122;SDS011;10222;50.848;4.336;2023-03-14T16:48:47;2.47;;;1.27;;
20122;SDS011;10222;50.848;4.336;2023-03-14T16:51:16;1.60;;;0.93;;
20122;SDS011;10222;50.848;4.336;2023-03-14T16:53:46;3.67;;;0.77;;
20122;SDS011;10222;50.848;4.336;2023-03-14T16:58:44;1.10;;;0.63;;
20122;SDS011;10222;50.848;4.336;2023-03-14T17:01:11;1.80;;;0.87;;
20122;SDS011;10222;50.848;4.336;2023-03-14T17:03:39;6.23;;;1.13;;
20122;SDS011;10222;50.848;4.336;2023-03-14T17:06:06;4.10;;;1.20;;
20122;SDS011;10222;50.848;4.336;2023-03-14T17:08:33;2.77;;;0.90;;
20122;SDS011;10222;50.848;4.336;2023-03-14T17:11:00;2.10;;;0.83;;
20122;SDS011;10222;50.848;4.336;2023-03-14T17:13:28;3.17;;;1.43;;
20122;SDS011;10222;50.848;4.336;2023-03-14T17:15:57;2.43;;;1.00;;
20122;SDS011;10222;50.848;4.336;2023-03-14T17:20:54;6.77;;;1.37;;
20122;SDS011;10222;50.848;4.336;2023-03-14T17:23:23;3.10;;;1.80;;
20122;SDS011;10222;50.848;4.336;2023-03-14T17:25:53;3.80;;;1.40;;
20122;SDS011;10222;50.848;4.336;2023-03-14T17:31:04;5.57;;;1.33;;
20122;SDS011;10222;50.848;4.336;2023-03-14T17:36:04;2.43;;;1.10;;
20122;SDS011;10222;50.848;4.336;2023-03-14T17:38:34;5.20;;;1.20;;
20122;SDS011;10222;50.848;4.336;2023-03-14T17:41:00;1.50;;;0.90;;
20122;SDS011;10222;50.848;4.336;2023-03-14T17:43:26;5.40;;;1.47;;
20122;SDS011;10222;50.848;4.336;2023-03-14T17:45:59;2.03;;;0.90;;
20122;SDS011;10222;50.848;4.336;2023-03-14T17:48:28;2.93;;;1.20;;
20122;SDS011;10222;50.848;4.336;2023-03-14T17:50:55;11.00;;;1.77;;
20122;SDS011;10222;50.848;4.336;2023-03-14T17:53:21;6.50;;;1.30;;
20122;SDS011;10222;50.848;4.336;2023-03-14T17:55:50;6.43;;;1.57;;
20122;SDS011;10222;50.848;4.336;2023-03-14T17:58:19;4.30;;;1.20;;
20122;SDS011;10222;50.848;4.336;2023-03-14T18:00:51;3.77;;;0.90;;